首页
METAR-TAF:

METAR-TAF

机场 :

尼亞加拉瀑布城, 紐約州, 美国

纬度: 43-06-26N, 经度: 078-56-43W, 海拔: 180米

当前天气观测

该预报发布于17分钟前的08:27 UTC
风速8节,风向西南
温度 1°C
湿度 86%
气压 1007 hPa
能見度: 16.1公里
多云层高于1300英尺
多云层高于1900英尺
阴天层高于3200英尺

METAR: KIAG 260827Z AUTO 23008KT 10SM BKN013 BKN019 OVC032 01/M01 A2975 RMK AO2 SNE05 P0000 T00061006

时间: 03:44 (08:44 UTC)

预报

该预报发布于3小时和4分钟前的05:40 UTC
预报有效从26日的 06点(UTC)到 27日的 06点(UTC)
风速10节,风向西南
能見度: 10公里
阴天层高于1200英尺
小阵雪
从 26日的 0800点(UTC)
风速10节,风向西转西南
能見度: 10公里
阴天层高于1200英尺
小阵雪
从 26日的 1000点(UTC)
风速12节,风向西转西南,有时为18节阵风
能見度: 6.4公里
阴天层高于1500英尺
小阵雪
从 26日的 1800点(UTC)
风速15节,风向西转西南,有时为25节阵风
能見度: 10公里
多云层高于1500英尺
附近有阵雨
从 26日的 2200点(UTC)
风速15节,风向西转西南,有时为25节阵风
能見度: 6.4公里
阴天层高于700英尺
小阵雪, 轻雾

TAF: KIAG 260540Z 2606/2706 23010KT P6SM -SHSN OVC012 FM260800 24010KT P6SM -SHSN OVC012 FM261000 24012G18KT 4SM -SHSN OVC015 FM261800 24015G25KT P6SM VCSH BKN015 FM262200 24015G25KT 4SM -SHSN BR OVC007

超过4000个机场的气象观测和天气预报(METAR&TAF报告)。

可查询的气象台以黄色和红色小点在地图上表示。

将鼠标移到小点上方,可查看气象台名称。

然后点击查看天气观测和预报。

如需切换地图:点击带黑十字的绿色按钮放大地图;点击带横线的绿色按钮缩小地图;或者点击绿色箭头查看邻近地区的地图。


METAR-TAF: